DLH374 EGKK-LFPG
Flight info
| Callsign | DLH374 |
|---|---|
| Flight time | N/A |
| Altitude | 25000 |
| Route | BOGNA DCT HARDY/N0419F230 M605 XIDIL UM605 BIBAX |
| Aircraft | A320/M-SDE3FGHIRWY/LB1 |
Departure
| Time | 2026-04-15 14:20 |
|---|---|
| Airport | London Gatwick Airport (EGKK) |
Arrival
| Time | N/A |
|---|---|
| Airport | Charles de Gaulle International Airport (LFPG) |
| Time | Latitude | Longitude | Altitude | Speed | Heading |
|---|---|---|---|---|---|
| 2026-04-15 13:29 | 51.15565 | -0.16993 | 211 ft | 0 kts | 166° |
| 2026-04-15 14:09 | 51.15569 | -0.16995 | 203 ft | 1 kts | 166° |
| 2026-04-15 14:10 | 51.15577 | -0.16998 | 215 ft | 1 kts | 166° |
| 2026-04-15 14:10 | 51.15584 | -0.17000 | 213 ft | 1 kts | 166° |
| 2026-04-15 14:10 | 51.15591 | -0.17003 | 207 ft | 1 kts | 166° |
| 2026-04-15 14:10 | 51.15599 | -0.17006 | 210 ft | 1 kts | 166° |
| 2026-04-15 14:13 | 51.15597 | -0.17011 | 209 ft | 0 kts | 207° |
| 2026-04-15 14:13 | 51.15599 | -0.17022 | 216 ft | 1 kts | 288° |
| 2026-04-15 14:13 | 51.15622 | -0.17047 | 214 ft | 8 kts | 323° |
| 2026-04-15 14:14 | 51.15633 | -0.17111 | 207 ft | 3 kts | 261° |
| 2026-04-15 14:14 | 51.15633 | -0.17113 | 207 ft | 0 kts | 260° |
| 2026-04-15 14:14 | 51.15632 | -0.17120 | 209 ft | 4 kts | 260° |
| 2026-04-15 14:15 | 51.15612 | -0.17254 | 210 ft | 12 kts | 254° |
| 2026-04-15 14:15 | 51.15551 | -0.17316 | 208 ft | 12 kts | 170° |
| 2026-04-15 14:15 | 51.15466 | -0.17283 | 210 ft | 13 kts | 166° |
| 2026-04-15 14:15 | 51.15373 | -0.17252 | 206 ft | 14 kts | 168° |
| 2026-04-15 14:16 | 51.15274 | -0.17205 | 207 ft | 16 kts | 151° |
| 2026-04-15 14:16 | 51.15198 | -0.17098 | 204 ft | 14 kts | 107° |
| 2026-04-15 14:16 | 51.15215 | -0.16951 | 201 ft | 13 kts | 77° |
| 2026-04-15 14:16 | 51.15222 | -0.16866 | 201 ft | 0 kts | 96° |
| 2026-04-15 14:18 | 51.15220 | -0.16849 | 205 ft | 8 kts | 104° |
| 2026-04-15 14:18 | 51.15155 | -0.16797 | 199 ft | 13 kts | 183° |
| 2026-04-15 14:19 | 51.15107 | -0.16910 | 205 ft | 13 kts | 254° |
| 2026-04-15 14:19 | 51.15084 | -0.17051 | 206 ft | 13 kts | 258° |
| 2026-04-15 14:19 | 51.15053 | -0.17282 | 211 ft | 46 kts | 256° |
| 2026-04-15 14:19 | 51.14929 | -0.18130 | 209 ft | 109 kts | 256° |
| 2026-04-15 14:20 | 51.14741 | -0.19586 | 231 ft | 155 kts | 260° |
| 2026-04-15 14:20 | 51.14551 | -0.21335 | 720 ft | 166 kts | 252° |
| 2026-04-15 14:20 | 51.14299 | -0.23258 | 1209 ft | 188 kts | 251° |
| 2026-04-15 14:20 | 51.13988 | -0.25371 | 1885 ft | 200 kts | 251° |
| 2026-04-15 14:21 | 51.13668 | -0.27536 | 2801 ft | 200 kts | 252° |
| 2026-04-15 14:21 | 51.13357 | -0.29686 | 3726 ft | 199 kts | 252° |
| 2026-04-15 14:21 | 51.13051 | -0.31821 | 4599 ft | 202 kts | 252° |
| 2026-04-15 14:21 | 51.12741 | -0.34013 | 5449 ft | 204 kts | 252° |
| 2026-04-15 14:22 | 51.12428 | -0.36236 | 6287 ft | 207 kts | 252° |
| 2026-04-15 14:22 | 51.12117 | -0.38464 | 7086 ft | 209 kts | 252° |
| 2026-04-15 14:22 | 51.11529 | -0.40546 | 7848 ft | 207 kts | 227° |
| 2026-04-15 14:22 | 51.10343 | -0.41834 | 8643 ft | 212 kts | 200° |
| 2026-04-15 14:23 | 51.08840 | -0.41998 | 9479 ft | 222 kts | 182° |
| 2026-04-15 14:23 | 51.07286 | -0.41799 | 10257 ft | 228 kts | 182° |
| 2026-04-15 14:23 | 51.05648 | -0.41591 | 10552 ft | 250 kts | 181° |
| 2026-04-15 14:23 | 51.03872 | -0.41363 | 11123 ft | 260 kts | 181° |
| 2026-04-15 14:24 | 51.02052 | -0.41123 | 11873 ft | 264 kts | 181° |
| 2026-04-15 14:24 | 51.00212 | -0.40882 | 12687 ft | 266 kts | 181° |
| 2026-04-15 14:24 | 50.98354 | -0.40641 | 13477 ft | 269 kts | 181° |
| 2026-04-15 14:24 | 50.96476 | -0.40400 | 14210 ft | 272 kts | 181° |
| 2026-04-15 14:25 | 50.94580 | -0.40155 | 14904 ft | 274 kts | 181° |
| 2026-04-15 14:25 | 50.92695 | -0.39911 | 15581 ft | 276 kts | 181° |
| 2026-04-15 14:25 | 50.90769 | -0.39663 | 16272 ft | 279 kts | 181° |
| 2026-04-15 14:25 | 50.88828 | -0.39417 | 16967 ft | 281 kts | 180° |
| 2026-04-15 14:26 | 50.86863 | -0.39169 | 17647 ft | 284 kts | 180° |
| 2026-04-15 14:26 | 50.84882 | -0.38900 | 18325 ft | 288 kts | 177° |
| 2026-04-15 14:26 | 50.82920 | -0.38077 | 18921 ft | 297 kts | 164° |
| 2026-04-15 14:26 | 50.81085 | -0.36455 | 19523 ft | 306 kts | 154° |
| 2026-04-15 14:27 | 50.79330 | -0.34619 | 20129 ft | 306 kts | 155° |
| 2026-04-15 14:27 | 50.77548 | -0.32764 | 20738 ft | 307 kts | 155° |
| 2026-04-15 14:27 | 50.75762 | -0.30909 | 21343 ft | 308 kts | 155° |
| 2026-04-15 14:27 | 50.73964 | -0.29048 | 21941 ft | 309 kts | 155° |
| 2026-04-15 14:28 | 50.72161 | -0.27185 | 22535 ft | 311 kts | 154° |
| 2026-04-15 14:28 | 50.70497 | -0.24902 | 23120 ft | 325 kts | 142° |
| 2026-04-15 14:28 | 50.69147 | -0.21879 | 23367 ft | 353 kts | 128° |
| 2026-04-15 14:28 | 50.68044 | -0.18313 | 23526 ft | 368 kts | 126° |
| 2026-04-15 14:29 | 50.66910 | -0.14611 | 23657 ft | 381 kts | 126° |
| 2026-04-15 14:29 | 50.65755 | -0.10845 | 23780 ft | 392 kts | 126° |
| 2026-04-15 14:29 | 50.64553 | -0.06927 | 23879 ft | 403 kts | 126° |
| 2026-04-15 14:29 | 50.63309 | -0.02877 | 23999 ft | 413 kts | 126° |
| 2026-04-15 14:30 | 50.62037 | 0.01251 | 24073 ft | 423 kts | 124° |
| 2026-04-15 14:30 | 50.60735 | 0.05462 | 24264 ft | 430 kts | 124° |
| 2026-04-15 14:30 | 50.59423 | 0.09707 | 24569 ft | 433 kts | 124° |
| 2026-04-15 14:30 | 50.58117 | 0.13932 | 24904 ft | 435 kts | 124° |
| 2026-04-15 14:31 | 50.56782 | 0.18238 | 25057 ft | 437 kts | 124° |
| 2026-04-15 14:31 | 50.55429 | 0.22575 | 25106 ft | 445 kts | 124° |
| 2026-04-15 14:31 | 50.54049 | 0.26978 | 25108 ft | 449 kts | 124° |
| 2026-04-15 14:31 | 50.52685 | 0.31335 | 25089 ft | 450 kts | 124° |
| 2026-04-15 14:32 | 50.51298 | 0.35763 | 25084 ft | 450 kts | 124° |
| 2026-04-15 14:32 | 50.49916 | 0.40166 | 25087 ft | 450 kts | 124° |
| 2026-04-15 14:32 | 50.48485 | 0.44579 | 25088 ft | 455 kts | 128° |
| 2026-04-15 14:32 | 50.46705 | 0.48678 | 25069 ft | 453 kts | 136° |
| 2026-04-15 14:33 | 50.44551 | 0.52266 | 25100 ft | 451 kts | 145° |
| 2026-04-15 14:33 | 50.42111 | 0.55405 | 25097 ft | 455 kts | 148° |
| 2026-04-15 14:33 | 50.39654 | 0.58479 | 25096 ft | 461 kts | 148° |
| 2026-04-15 14:33 | 50.37133 | 0.61636 | 25098 ft | 465 kts | 148° |
| 2026-04-15 14:34 | 50.34599 | 0.64820 | 25099 ft | 467 kts | 148° |
| 2026-04-15 14:34 | 50.32059 | 0.68024 | 25100 ft | 467 kts | 147° |
| 2026-04-15 14:34 | 50.29522 | 0.71221 | 25100 ft | 467 kts | 148° |
| 2026-04-15 14:34 | 50.26983 | 0.74410 | 25106 ft | 467 kts | 148° |
| 2026-04-15 14:35 | 50.24480 | 0.77541 | 25101 ft | 467 kts | 148° |
| 2026-04-15 14:35 | 50.21936 | 0.80713 | 25109 ft | 467 kts | 148° |
| 2026-04-15 14:35 | 50.19394 | 0.83877 | 25108 ft | 467 kts | 148° |